Walkerton, Indiana
Current Conditions -  °F | °C
As of 1:15 AM on Thursday 29 Jan 2015 (Local Time) from KOXI Reporting Station
Broken Clouds Broken Clouds  
Wind Chill: 23°   Ceiling: 10000
Heat Index: 33°   Visibility: 10mi
Dew Point:   Wind: 15mph
Humidity: 35%   Direction: 160°SSE
Pressure: 29.87"   Gusts: 23mph
Location:  41.47°N, 86.48°W
Report Text: KOXI 290615Z AUTO 16013G20KT 10SM BKN100 BKN110 00/M13 A2987 RMK AO1 T00041135
Loading
Personal Weather Stations






























Interactive Weather Map New forecast layout! Learn more

10-Day Weather Forecast

Advertisements
Track Severe Weather on mobile